createdAt,value
2023-02-09T00:00:10.939Z,28.81
2023-02-09T00:02:38.800Z,28.85
2023-02-09T00:05:07.925Z,28.75
2023-02-09T00:07:36.995Z,28.74
2023-02-09T00:10:04.733Z,28.49
2023-02-09T00:12:49.613Z,28.68
2023-02-09T00:15:17.244Z,28.65
2023-02-09T00:17:45.450Z,28.52
2023-02-09T00:20:13.232Z,28.51
2023-02-09T00:22:42.242Z,28.40
2023-02-09T00:25:09.885Z,28.30
2023-02-09T00:27:37.548Z,28.29
2023-02-09T00:30:05.514Z,28.37
2023-02-09T00:32:33.287Z,28.34
2023-02-09T00:35:00.989Z,28.09
2023-02-09T00:37:28.676Z,28.06
2023-02-09T00:39:57.754Z,27.97
2023-02-09T00:42:25.465Z,27.98
2023-02-09T00:44:53.136Z,27.97
2023-02-09T00:47:20.877Z,27.85
2023-02-09T00:49:48.494Z,27.75
2023-02-09T00:52:16.164Z,27.86
2023-02-09T00:54:43.838Z,27.73
2023-02-09T00:57:12.969Z,27.75
2023-02-09T00:59:42.501Z,27.81
2023-02-09T01:02:10.267Z,27.60
2023-02-09T01:04:38.845Z,27.78
2023-02-09T01:07:06.626Z,27.65
2023-02-09T01:09:34.373Z,27.76
2023-02-09T01:12:02.033Z,27.67
2023-02-09T01:14:31.122Z,27.56
2023-02-09T01:16:58.831Z,27.65
2023-02-09T01:19:26.889Z,27.49
2023-02-09T01:21:54.562Z,27.60
2023-02-09T01:24:22.186Z,27.44
2023-02-09T01:26:49.974Z,27.46
2023-02-09T01:29:18.071Z,27.57
2023-02-09T01:31:47.424Z,27.60
2023-02-09T01:34:15.730Z,27.36
2023-02-09T01:36:43.527Z,27.51
2023-02-09T01:39:11.636Z,27.45
2023-02-09T01:41:39.451Z,27.24
2023-02-09T01:44:07.480Z,27.39
2023-02-09T01:46:35.555Z,27.43
2023-02-09T01:49:05.773Z,27.28
2023-02-09T01:51:34.267Z,27.15
2023-02-09T01:54:02.115Z,27.31
2023-02-09T01:56:30.446Z,27.34
2023-02-09T01:58:58.102Z,26.94
2023-02-09T02:01:25.933Z,27.16
2023-02-09T02:03:54.109Z,27.03
2023-02-09T02:06:23.256Z,26.96
2023-02-09T02:08:52.617Z,27.00
2023-02-09T02:11:20.296Z,26.74
2023-02-09T02:13:48.058Z,26.82
2023-02-09T02:16:39.840Z,26.92
2023-02-09T02:19:18.161Z,26.85
2023-02-09T02:22:09.660Z,26.87
2023-02-09T02:24:46.750Z,26.97
2023-02-09T02:27:15.511Z,26.67
2023-02-09T02:30:04.665Z,26.80
2023-02-09T02:32:35.660Z,26.81
2023-02-09T02:35:04.563Z,26.91
2023-02-09T02:37:35.505Z,26.81
2023-02-09T02:40:05.008Z,26.68
2023-02-09T02:42:51.992Z,26.62
2023-02-09T02:45:30.491Z,26.70
2023-02-09T02:48:00.154Z,26.72
2023-02-09T02:50:28.449Z,26.60
2023-02-09T02:52:56.601Z,26.36
2023-02-09T02:55:25.578Z,26.49
2023-02-09T02:57:53.305Z,26.59
2023-02-09T03:00:21.609Z,26.56
2023-02-09T03:02:50.092Z,26.52
2023-02-09T03:05:19.310Z,26.25
2023-02-09T03:07:47.022Z,26.31
2023-02-09T03:10:25.227Z,26.27
2023-02-09T03:12:53.594Z,26.33
2023-02-09T03:15:23.580Z,26.21
2023-02-09T03:17:52.727Z,26.29
2023-02-09T03:20:24.780Z,26.15
2023-02-09T03:22:56.360Z,26.15
2023-02-09T03:25:25.225Z,26.14
2023-02-09T03:27:54.717Z,26.12
2023-02-09T03:30:22.466Z,26.13
2023-02-09T03:32:50.179Z,26.18
2023-02-09T03:35:18.769Z,26.22
2023-02-09T03:37:47.866Z,26.04
2023-02-09T03:40:15.491Z,26.14
2023-02-09T03:42:43.156Z,26.13
2023-02-09T03:45:11.021Z,26.04
2023-02-09T03:47:38.659Z,26.05
2023-02-09T03:50:07.548Z,26.24
2023-02-09T03:52:35.249Z,26.00
2023-02-09T03:55:05.337Z,25.91
2023-02-09T03:57:33.042Z,25.96
2023-02-09T04:00:01.794Z,26.13
2023-02-09T04:02:30.419Z,26.16
2023-02-09T04:04:58.170Z,26.05
2023-02-09T04:07:25.989Z,26.09
2023-02-09T04:09:53.753Z,25.85
2023-02-09T04:12:22.762Z,26.04
2023-02-09T04:14:50.493Z,25.87
2023-02-09T04:17:18.156Z,25.86
2023-02-09T04:19:45.796Z,25.87
2023-02-09T04:22:13.452Z,25.66
2023-02-09T04:24:41.120Z,25.64
2023-02-09T04:27:08.843Z,25.73
2023-02-09T04:29:37.909Z,25.84
2023-02-09T04:32:05.858Z,25.75
2023-02-09T04:34:33.565Z,25.82
2023-02-09T04:37:01.285Z,25.79
2023-02-09T04:39:28.997Z,25.83
2023-02-09T04:41:56.694Z,25.84
2023-02-09T04:44:24.297Z,25.67
2023-02-09T04:46:53.410Z,25.74
2023-02-09T04:49:21.167Z,25.63
2023-02-09T04:51:48.816Z,25.66
2023-02-09T04:54:16.527Z,25.53
2023-02-09T04:56:44.326Z,25.69
2023-02-09T04:59:29.469Z,25.58
2023-02-09T05:01:58.623Z,25.67
2023-02-09T05:04:26.319Z,25.66
2023-02-09T05:06:54.091Z,25.70
2023-02-09T05:09:21.848Z,25.53
2023-02-09T05:11:49.493Z,25.69
2023-02-09T05:14:17.161Z,25.67
2023-02-09T05:16:45.321Z,25.63
2023-02-09T05:19:14.398Z,25.49
2023-02-09T05:21:42.095Z,25.55
2023-02-09T05:24:09.766Z,25.49
2023-02-09T05:26:37.439Z,25.58
2023-02-09T05:29:05.143Z,25.43
2023-02-09T05:31:33.002Z,25.34
2023-02-09T05:34:01.747Z,25.37
2023-02-09T05:36:30.881Z,25.37
2023-02-09T05:38:58.580Z,25.34
2023-02-09T05:41:43.622Z,25.37
2023-02-09T05:44:11.348Z,25.37
2023-02-09T05:46:39.109Z,25.15
2023-02-09T05:49:06.820Z,25.34
2023-02-09T05:51:35.866Z,25.50
2023-02-09T05:54:03.577Z,25.31
2023-02-09T05:56:31.263Z,25.45
2023-02-09T05:58:59.018Z,25.29
2023-02-09T06:01:26.672Z,25.35
2023-02-09T06:03:54.414Z,25.35
2023-02-09T06:06:22.081Z,25.22
2023-02-09T06:08:51.191Z,25.14
2023-02-09T06:11:19.376Z,25.19
2023-02-09T06:13:47.127Z,25.18
2023-02-09T06:16:14.862Z,25.13
2023-02-09T06:18:42.566Z,25.03
2023-02-09T06:21:11.617Z,24.89
2023-02-09T06:23:39.313Z,24.95
2023-02-09T06:26:09.238Z,24.95
2023-02-09T06:28:36.963Z,25.06
2023-02-09T06:31:05.467Z,24.77
2023-02-09T06:33:33.195Z,25.13
2023-02-09T06:36:01.170Z,24.83
2023-02-09T06:38:28.802Z,24.89
2023-02-09T06:40:56.518Z,24.93
2023-02-09T06:43:25.626Z,24.66
2023-02-09T06:45:53.273Z,24.53
2023-02-09T06:48:21.233Z,24.84
2023-02-09T06:50:49.087Z,24.64
2023-02-09T06:53:17.233Z,24.53
2023-02-09T06:55:44.921Z,24.86
2023-02-09T06:58:12.676Z,24.61
2023-02-09T07:00:41.829Z,24.49
2023-02-09T07:03:09.521Z,24.48
2023-02-09T07:05:37.282Z,24.31
2023-02-09T07:08:04.969Z,24.59
2023-02-09T07:10:32.626Z,24.36
2023-02-09T07:13:00.249Z,25.41
2023-02-09T07:15:27.926Z,24.88
2023-02-09T07:17:57.036Z,25.65
2023-02-09T07:20:24.825Z,25.59
2023-02-09T07:22:52.611Z,25.56
2023-02-09T07:25:20.362Z,25.67
2023-02-09T07:27:48.223Z,25.64
2023-02-09T07:30:16.677Z,25.65
2023-02-09T07:32:44.380Z,25.47
2023-02-09T07:35:13.463Z,25.42
2023-02-09T07:37:41.122Z,25.53
2023-02-09T07:40:09.526Z,25.51
2023-02-09T07:42:37.296Z,25.68
2023-02-09T07:45:05.103Z,25.50
2023-02-09T07:47:32.892Z,25.56
2023-02-09T07:50:00.583Z,25.37
2023-02-09T07:52:29.640Z,25.52
2023-02-09T07:54:57.337Z,25.28
2023-02-09T07:57:25.042Z,25.20
2023-02-09T07:59:53.346Z,25.19
2023-02-09T08:02:25.676Z,25.34
2023-02-09T08:04:53.680Z,25.37
2023-02-09T08:07:21.423Z,26.71
2023-02-09T08:09:51.061Z,25.72
2023-02-09T08:12:19.062Z,26.67
2023-02-09T08:14:48.399Z,26.83
2023-02-09T08:17:26.166Z,26.94
2023-02-09T08:19:54.511Z,27.80
2023-02-09T08:22:22.678Z,27.11
2023-02-09T08:24:51.732Z,27.07
2023-02-09T08:27:19.402Z,27.23
2023-02-09T08:29:48.940Z,26.74
2023-02-09T08:32:16.868Z,26.90
2023-02-09T08:34:44.631Z,26.58
2023-02-09T08:37:12.961Z,26.69
2023-02-09T08:39:40.686Z,26.99
2023-02-09T08:42:09.772Z,27.23
2023-02-09T08:44:38.073Z,26.76
2023-02-09T08:47:06.002Z,27.07
2023-02-09T08:49:34.348Z,26.68
2023-02-09T08:52:02.070Z,27.21
2023-02-09T08:54:30.897Z,26.89
2023-02-09T08:56:58.676Z,26.87
2023-02-09T08:59:28.649Z,27.99
2023-02-09T09:01:56.453Z,27.68
2023-02-09T09:04:24.874Z,28.09
2023-02-09T09:06:53.236Z,27.63
2023-02-09T09:09:20.933Z,27.81
2023-02-09T09:11:50.240Z,28.28
2023-02-09T09:14:17.901Z,28.33
2023-02-09T09:16:47.033Z,29.56
2023-02-09T09:19:16.138Z,28.38
2023-02-09T09:21:43.851Z,28.80
2023-02-09T09:24:11.521Z,28.39
2023-02-09T09:26:39.775Z,28.84
2023-02-09T09:29:07.455Z,28.89
2023-02-09T09:31:35.920Z,29.28
2023-02-09T09:34:05.104Z,29.30
2023-02-09T09:36:32.839Z,28.77
2023-02-09T09:39:01.118Z,28.92
2023-02-09T09:41:30.095Z,29.11
2023-02-09T09:43:58.402Z,29.61
2023-02-09T09:46:27.929Z,29.42
2023-02-09T09:48:56.889Z,29.11
2023-02-09T09:51:28.803Z,29.27
2023-02-09T09:53:57.130Z,29.08
2023-02-09T09:56:27.076Z,29.13
2023-02-09T09:58:55.635Z,28.72
2023-02-09T10:01:23.437Z,28.59
2023-02-09T10:03:51.900Z,29.52
2023-02-09T10:06:21.814Z,29.18
2023-02-09T10:08:53.667Z,28.84
2023-02-09T10:11:21.800Z,28.60
2023-02-09T10:13:50.036Z,29.09
2023-02-09T10:16:19.245Z,29.15
2023-02-09T10:18:47.052Z,28.90
2023-02-09T10:21:16.168Z,29.41
2023-02-09T10:23:44.892Z,29.40
2023-02-09T10:26:24.788Z,29.83
2023-02-09T10:28:52.984Z,29.79
2023-02-09T10:31:24.245Z,30.02
2023-02-09T10:33:53.533Z,29.94
2023-02-09T10:36:28.733Z,29.90
2023-02-09T10:39:04.252Z,29.95
2023-02-09T10:41:34.515Z,29.78
2023-02-09T10:44:02.998Z,29.73
2023-02-09T10:46:30.691Z,30.12
2023-02-09T10:48:59.077Z,29.97
2023-02-09T10:51:29.329Z,29.90
2023-02-09T10:54:02.314Z,29.95
2023-02-09T10:56:30.385Z,29.80
2023-02-09T10:59:02.311Z,29.99
2023-02-09T11:01:30.262Z,29.64
2023-02-09T11:04:01.121Z,29.86
2023-02-09T11:06:29.580Z,29.81
2023-02-09T11:08:58.097Z,29.93
2023-02-09T11:11:33.173Z,29.66
2023-02-09T11:14:02.269Z,29.79
2023-02-09T11:16:46.341Z,29.60
2023-02-09T11:19:16.221Z,29.48
2023-02-09T11:21:48.121Z,29.62
2023-02-09T11:24:17.523Z,29.52
2023-02-09T11:26:49.289Z,29.21
2023-02-09T11:29:19.895Z,29.37
2023-02-09T11:32:03.288Z,29.36
2023-02-09T11:34:43.855Z,28.99
2023-02-09T11:37:18.322Z,28.98
2023-02-09T11:39:47.308Z,28.82
2023-02-09T11:42:36.147Z,28.67
2023-02-09T11:45:08.595Z,28.56
2023-02-09T11:47:41.125Z,28.35
2023-02-09T11:50:09.436Z,28.19
2023-02-09T11:52:37.739Z,28.12
2023-02-09T11:55:10.310Z,28.06
2023-02-09T11:57:40.650Z,28.30
2023-02-09T12:00:12.176Z,27.93
2023-02-09T12:02:42.110Z,28.17
2023-02-09T12:05:13.309Z,27.98
2023-02-09T12:07:42.286Z,28.03
2023-02-09T12:10:14.604Z,28.35
2023-02-09T12:12:44.495Z,28.71
2023-02-09T12:15:20.025Z,28.92
2023-02-09T12:17:48.728Z,28.92
2023-02-09T12:20:24.263Z,28.84
2023-02-09T12:22:53.590Z,28.92
2023-02-09T12:25:22.777Z,28.88
2023-02-09T12:28:12.084Z,29.02
2023-02-09T12:30:58.249Z,29.08
2023-02-09T12:33:31.580Z,29.44
2023-02-09T12:35:59.835Z,29.39
2023-02-09T12:38:29.238Z,29.25
2023-02-09T12:41:03.239Z,29.08
2023-02-09T12:43:32.081Z,29.62
2023-02-09T12:46:19.985Z,29.37
2023-02-09T12:48:53.263Z,29.40
2023-02-09T12:51:38.797Z,29.41
2023-02-09T12:54:22.035Z,29.51
2023-02-09T12:56:49.705Z,29.89
2023-02-09T12:59:18.508Z,29.23
2023-02-09T13:02:04.600Z,29.67
2023-02-09T13:04:36.349Z,29.46
2023-02-09T13:07:04.785Z,29.42
2023-02-09T13:09:33.660Z,29.08
2023-02-09T13:12:03.861Z,29.29
2023-02-09T13:14:31.529Z,29.31
2023-02-09T13:17:19.606Z,29.04
2023-02-09T13:19:57.755Z,29.37
2023-02-09T13:22:28.944Z,29.09
2023-02-09T13:24:58.039Z,29.25
2023-02-09T13:27:25.887Z,29.11
2023-02-09T13:29:54.892Z,29.21
2023-02-09T13:32:25.612Z,29.21
2023-02-09T13:34:54.608Z,29.05
2023-02-09T13:37:25.253Z,29.11
2023-02-09T13:39:58.343Z,28.90
2023-02-09T13:42:26.757Z,28.89
2023-02-09T13:44:54.744Z,29.05
2023-02-09T13:47:23.122Z,28.88
2023-02-09T13:49:57.346Z,28.98
2023-02-09T13:52:27.514Z,28.72
2023-02-09T13:54:55.191Z,28.71
2023-02-09T13:57:29.883Z,28.64
2023-02-09T13:59:57.880Z,28.88
2023-02-09T14:02:27.150Z,28.72
2023-02-09T14:05:02.660Z,28.73
2023-02-09T14:07:34.785Z,28.56
2023-02-09T14:10:05.468Z,28.57
2023-02-09T14:12:52.880Z,28.59
2023-02-09T14:15:41.451Z,28.42
2023-02-09T14:18:31.450Z,28.60
2023-02-09T14:21:02.016Z,28.74
2023-02-09T14:23:35.251Z,28.53
2023-02-09T14:26:05.331Z,28.50
2023-02-09T14:28:34.268Z,28.35
2023-02-09T14:31:03.398Z,28.25
2023-02-09T14:33:32.131Z,28.46
2023-02-09T14:36:01.948Z,28.40
2023-02-09T14:38:38.606Z,28.25
2023-02-09T14:41:19.983Z,28.31
2023-02-09T14:43:57.339Z,28.09
2023-02-09T14:46:25.830Z,28.48
2023-02-09T14:48:56.724Z,28.38
2023-02-09T14:51:25.050Z,28.70
2023-02-09T14:53:54.050Z,28.21
2023-02-09T14:56:25.298Z,28.50
2023-02-09T14:58:52.921Z,28.39
2023-02-09T15:01:20.642Z,28.27
2023-02-09T15:03:49.094Z,28.19
2023-02-09T15:06:17.544Z,28.31
2023-02-09T15:08:45.312Z,28.16
2023-02-09T15:11:34.560Z,28.06
2023-02-09T15:14:03.909Z,27.94
2023-02-09T15:16:32.416Z,28.06
2023-02-09T15:19:00.108Z,28.15
2023-02-09T15:21:28.600Z,28.21
2023-02-09T15:23:56.274Z,27.49
2023-02-09T15:26:26.887Z,28.69
2023-02-09T15:28:55.402Z,27.59
2023-02-09T15:31:23.062Z,27.90
2023-02-09T15:33:51.471Z,27.80
2023-02-09T15:36:19.537Z,28.01
2023-02-09T15:38:48.074Z,27.70
2023-02-09T15:41:36.354Z,27.96
2023-02-09T15:44:24.166Z,27.84
2023-02-09T15:47:09.340Z,27.67
2023-02-09T15:49:38.643Z,27.49
2023-02-09T15:52:06.524Z,27.55
2023-02-09T15:54:34.286Z,27.32
2023-02-09T15:57:03.581Z,27.04
2023-02-09T15:59:32.828Z,27.36
2023-02-09T16:02:01.270Z,27.31
2023-02-09T16:04:31.482Z,27.26
2023-02-09T16:06:59.264Z,27.46
2023-02-09T16:09:28.501Z,27.09
2023-02-09T16:11:56.434Z,27.20
2023-02-09T16:14:26.591Z,27.47
2023-02-09T16:16:55.897Z,26.89
2023-02-09T16:19:24.575Z,27.04
2023-02-09T16:21:53.061Z,27.20
2023-02-09T16:24:23.553Z,27.26
2023-02-09T16:26:51.296Z,27.06
2023-02-09T16:29:19.026Z,26.80
2023-02-09T16:31:47.636Z,26.78
2023-02-09T16:34:16.814Z,26.80
2023-02-09T16:36:45.068Z,26.97
2023-02-09T16:39:17.190Z,26.94
2023-02-09T16:41:51.627Z,26.69
2023-02-09T16:44:21.770Z,26.71
2023-02-09T16:46:50.457Z,26.51
2023-02-09T16:49:34.875Z,26.84
2023-02-09T16:52:03.407Z,26.74
2023-02-09T16:54:31.463Z,26.77
2023-02-09T16:57:03.789Z,26.81
2023-02-09T16:59:32.292Z,26.54
2023-02-09T17:02:02.206Z,26.73
2023-02-09T17:04:32.959Z,26.53
2023-02-09T17:07:01.863Z,26.63
2023-02-09T17:09:30.900Z,26.63
2023-02-09T17:11:58.615Z,26.93
2023-02-09T17:14:27.733Z,27.00
2023-02-09T17:16:56.549Z,26.89
2023-02-09T17:19:24.205Z,27.51
2023-02-09T17:21:54.651Z,27.70
2023-02-09T17:24:22.314Z,27.40
2023-02-09T17:26:50.816Z,27.49
2023-02-09T17:29:21.341Z,27.46
2023-02-09T17:31:53.518Z,27.49
2023-02-09T17:34:27.814Z,27.49
2023-02-09T17:36:57.034Z,27.42
2023-02-09T17:39:24.688Z,28.21
2023-02-09T17:41:54.725Z,27.76
2023-02-09T17:44:35.362Z,28.19
2023-02-09T17:47:12.728Z,28.61
2023-02-09T17:49:40.492Z,28.29
2023-02-09T17:52:19.000Z,28.35
2023-02-09T17:54:47.714Z,28.64
2023-02-09T17:57:15.412Z,28.80
2023-02-09T17:59:45.306Z,29.06
2023-02-09T18:02:14.658Z,29.89
2023-02-09T18:04:44.309Z,29.72
2023-02-09T18:07:14.541Z,29.03
2023-02-09T18:09:42.235Z,29.15
2023-02-09T18:12:12.693Z,28.97
2023-02-09T18:14:40.441Z,28.87
2023-02-09T18:17:09.063Z,28.45
2023-02-09T18:19:36.718Z,28.27
2023-02-09T18:22:10.787Z,28.23
2023-02-09T18:24:39.824Z,28.21
2023-02-09T18:27:08.762Z,28.52
2023-02-09T18:29:37.823Z,28.89
2023-02-09T18:32:05.657Z,29.17
2023-02-09T18:34:35.775Z,28.87
2023-02-09T18:37:03.506Z,28.67
2023-02-09T18:39:32.620Z,28.08
2023-02-09T18:42:01.694Z,28.17
2023-02-09T18:44:33.816Z,27.89
2023-02-09T18:47:02.052Z,27.77
2023-02-09T18:49:32.474Z,27.74
2023-02-09T18:52:01.658Z,27.90
2023-02-09T18:54:32.037Z,27.91
2023-02-09T18:57:02.977Z,27.81
2023-02-09T18:59:33.033Z,28.02
2023-02-09T19:02:00.868Z,27.84
2023-02-09T19:04:31.787Z,27.47
2023-02-09T19:07:01.801Z,27.49
2023-02-09T19:09:29.661Z,27.82
2023-02-09T19:11:58.823Z,27.92
2023-02-09T19:14:40.096Z,27.73
2023-02-09T19:17:09.942Z,27.79
2023-02-09T19:19:38.772Z,27.59
2023-02-09T19:22:06.486Z,27.84
2023-02-09T19:24:35.202Z,27.57
2023-02-09T19:27:03.621Z,27.50
2023-02-09T19:29:32.781Z,27.61
2023-02-09T19:32:02.805Z,27.58
2023-02-09T19:34:31.270Z,27.33
2023-02-09T19:37:00.209Z,27.11
2023-02-09T19:39:28.029Z,27.07
2023-02-09T19:41:56.595Z,27.27
2023-02-09T19:44:24.252Z,27.23
2023-02-09T19:46:53.366Z,27.28
2023-02-09T19:49:22.211Z,27.44
2023-02-09T19:51:49.826Z,27.99
2023-02-09T19:54:18.478Z,27.92
2023-02-09T19:56:46.254Z,27.72
2023-02-09T19:59:14.080Z,27.75
2023-02-09T20:01:42.651Z,27.23
2023-02-09T20:04:15.985Z,26.60
2023-02-09T20:06:44.499Z,26.71
2023-02-09T20:09:12.432Z,26.60
2023-02-09T20:11:41.182Z,26.79
2023-02-09T20:14:08.890Z,26.48
2023-02-09T20:16:37.512Z,26.38
2023-02-09T20:19:05.459Z,26.39
2023-02-09T20:21:35.546Z,26.51
2023-02-09T20:24:07.793Z,26.22
2023-02-09T20:26:36.363Z,26.35
2023-02-09T20:29:05.360Z,26.25
2023-02-09T20:31:34.894Z,26.15
2023-02-09T20:34:06.958Z,26.19
2023-02-09T20:36:36.631Z,26.08
2023-02-09T20:39:05.421Z,26.24
2023-02-09T20:41:33.160Z,26.01
2023-02-09T20:44:19.848Z,26.11
2023-02-09T20:46:59.405Z,26.19
2023-02-09T20:49:32.128Z,25.95
2023-02-09T20:52:01.733Z,26.18
2023-02-09T20:54:33.870Z,25.91
2023-02-09T20:57:01.580Z,25.91
2023-02-09T20:59:31.911Z,26.05
2023-02-09T21:01:59.654Z,25.89
2023-02-09T21:04:32.120Z,25.89
2023-02-09T21:07:04.166Z,25.85
2023-02-09T21:09:32.689Z,25.71
2023-02-09T21:12:00.426Z,25.75
2023-02-09T21:14:41.123Z,25.64
2023-02-09T21:17:09.194Z,25.82
2023-02-09T21:19:37.892Z,25.54
2023-02-09T21:22:07.048Z,25.54
2023-02-09T21:24:34.701Z,25.44
2023-02-09T21:27:03.921Z,25.60
2023-02-09T21:29:31.574Z,25.52
2023-02-09T21:32:03.952Z,25.56
2023-02-09T21:34:31.769Z,25.68
2023-02-09T21:36:59.518Z,25.39
2023-02-09T21:39:29.529Z,25.65
2023-02-09T21:42:14.690Z,25.53
2023-02-09T21:44:43.347Z,25.53
2023-02-09T21:47:11.526Z,25.35
2023-02-09T21:49:39.215Z,25.25
2023-02-09T21:52:08.269Z,25.54
2023-02-09T21:54:37.338Z,25.35
2023-02-09T21:57:05.109Z,25.23
2023-02-09T21:59:33.609Z,25.50
2023-02-09T22:02:01.382Z,25.30
2023-02-09T22:04:30.483Z,25.42
2023-02-09T22:06:59.277Z,25.36
2023-02-09T22:11:56.913Z,25.32
2023-02-09T22:14:24.512Z,25.73
2023-02-09T22:16:53.042Z,25.62
2023-02-09T22:19:20.670Z,25.51
2023-02-09T22:21:49.215Z,25.66
2023-02-09T22:24:16.914Z,25.74
2023-02-09T22:26:45.804Z,25.48
2023-02-09T22:29:15.136Z,25.62
2023-02-09T22:31:43.606Z,25.67
2023-02-09T22:34:11.296Z,25.59
2023-02-09T22:36:39.819Z,25.51
2023-02-09T22:39:08.506Z,25.46
2023-02-09T22:41:36.201Z,25.44
2023-02-09T22:44:05.197Z,25.69
2023-02-09T22:46:34.794Z,25.67
2023-02-09T22:49:03.173Z,25.51
2023-02-09T22:51:31.890Z,25.51
2023-02-09T22:53:59.744Z,25.36
2023-02-09T22:56:28.242Z,25.28
2023-02-09T22:58:55.948Z,25.48
2023-02-09T23:01:24.955Z,25.47
2023-02-09T23:03:54.108Z,25.35
2023-02-09T23:06:24.070Z,25.35
2023-02-09T23:08:53.700Z,25.44
2023-02-09T23:11:21.498Z,25.23
2023-02-09T23:13:52.875Z,25.30
2023-02-09T23:16:23.711Z,25.01
2023-02-09T23:18:51.865Z,25.10
2023-02-09T23:21:21.129Z,25.14
2023-02-09T23:23:48.837Z,25.01
2023-02-09T23:26:16.628Z,25.11
2023-02-09T23:28:44.590Z,25.15
2023-02-09T23:31:13.095Z,25.07
2023-02-09T23:33:40.857Z,24.94
2023-02-09T23:36:09.227Z,24.95
2023-02-09T23:38:38.390Z,24.88
2023-02-09T23:41:06.674Z,24.98
2023-02-09T23:43:34.516Z,24.89
2023-02-09T23:46:02.477Z,24.88
2023-02-09T23:48:30.282Z,24.77
2023-02-09T23:51:00.989Z,24.84
2023-02-09T23:53:28.667Z,24.53
2023-02-09T23:56:03.773Z,24.63
2023-02-09T23:58:31.915Z,24.92
